KGGW

Wokal Field / Glasgow International Airport

Glasgow, Montana, USA
METAR KGGW 162353Z AUTO 10014KT 10SM CLR M02/M05 A3002 RMK AO2 SLP201 T10171050 10006 21028 56010
Observed Flight Rules
Dec-16 @ 23:53 UTC (30 minutes ago) Visual Flight Rules
Wind Visibility Clouds
100° at 14 knots 10 miles
  • Clear skies
Temperatures Readings
Current -2°C / 28°F
Dewpoint -5°C / 23°F
Humidity 80%
Altimeter 30.02" Hg
Pressure 1020.1 hPa
Elevation 694
METAR KGGW 162353Z AUTO 10014KT 10SM CLR M02/M05 A3002 RMK AO2 SLP201 T10171050 10006 21028 56010
Observed Flight Rules
Dec-16 @ 23:53 UTC
(30 minutes ago)
VFR
Wind Visibility
100° at 14 knots 10 miles
Clouds
  • Clear skies
Temperature Dewpoint
-2°C / 28°F -5°C / 23°F
Humidity Altimeter Pressure
80% 30.02" Hg 1020.1 hPa